N152CD KOMA-KDTW
Flight info
| Callsign | N152CD |
|---|---|
| Flight time | 1h 26m |
| Altitude | 39000 |
| Route | DSM J144 DBQ PORZL RKCTY2 |
| Aircraft | C750/M-SBDE3FGHRWXY/S |
Departure
| Time | 2026-04-21 20:47 |
|---|---|
| Airport | Eppley Airfield (KOMA) |
Arrival
| Time | 2026-04-21 22:13 |
|---|---|
| Airport | Detroit Metropolitan Wayne County Airport (KDTW) |
| Time | Latitude | Longitude | Altitude | Speed | Heading |
|---|---|---|---|---|---|
| 2026-04-21 20:29 | 41.30312 | -95.88583 | 987 ft | 0 kts | 295° |
| 2026-04-21 20:41 | 41.30315 | -95.88592 | 988 ft | 3 kts | 295° |
| 2026-04-21 20:41 | 41.30308 | -95.88623 | 981 ft | 6 kts | 239° |
| 2026-04-21 20:41 | 41.30309 | -95.88682 | 981 ft | 8 kts | 291° |
| 2026-04-21 20:42 | 41.30349 | -95.88744 | 981 ft | 9 kts | 286° |
| 2026-04-21 20:42 | 41.30337 | -95.88822 | 981 ft | 9 kts | 263° |
| 2026-04-21 20:42 | 41.30312 | -95.88901 | 986 ft | 11 kts | 233° |
| 2026-04-21 20:42 | 41.30259 | -95.88999 | 982 ft | 16 kts | 233° |
| 2026-04-21 20:43 | 41.30210 | -95.89119 | 981 ft | 13 kts | 279° |
| 2026-04-21 20:43 | 41.30260 | -95.89184 | 981 ft | 9 kts | 324° |
| 2026-04-21 20:43 | 41.30320 | -95.89241 | 983 ft | 12 kts | 324° |
| 2026-04-21 20:43 | 41.30396 | -95.89315 | 985 ft | 15 kts | 324° |
| 2026-04-21 20:44 | 41.30485 | -95.89399 | 988 ft | 17 kts | 325° |
| 2026-04-21 20:44 | 41.30587 | -95.89496 | 983 ft | 19 kts | 324° |
| 2026-04-21 20:44 | 41.30702 | -95.89606 | 982 ft | 20 kts | 324° |
| 2026-04-21 20:44 | 41.30821 | -95.89719 | 986 ft | 22 kts | 324° |
| 2026-04-21 20:45 | 41.30956 | -95.89846 | 981 ft | 25 kts | 323° |
| 2026-04-21 20:45 | 41.31105 | -95.89988 | 981 ft | 27 kts | 324° |
| 2026-04-21 20:45 | 41.31240 | -95.90116 | 984 ft | 15 kts | 324° |
| 2026-04-21 20:45 | 41.31303 | -95.90116 | 985 ft | 6 kts | 46° |
| 2026-04-21 20:46 | 41.31325 | -95.90041 | 983 ft | 13 kts | 98° |
| 2026-04-21 20:46 | 41.31217 | -95.89913 | 986 ft | 44 kts | 145° |
| 2026-04-21 20:46 | 41.30648 | -95.89374 | 994 ft | 143 kts | 145° |
| 2026-04-21 20:46 | 41.29803 | -95.88564 | 1545 ft | 160 kts | 146° |
| 2026-04-21 20:47 | 41.28862 | -95.87651 | 2176 ft | 173 kts | 145° |
| 2026-04-21 20:47 | 41.27872 | -95.86697 | 2993 ft | 178 kts | 144° |
| 2026-04-21 20:47 | 41.26870 | -95.85723 | 3880 ft | 179 kts | 144° |
| 2026-04-21 20:47 | 41.26186 | -95.84295 | 4629 ft | 195 kts | 107° |
| 2026-04-21 20:48 | 41.26119 | -95.82453 | 5455 ft | 205 kts | 82° |
| 2026-04-21 20:48 | 41.26324 | -95.80557 | 6409 ft | 209 kts | 80° |
| 2026-04-21 20:48 | 41.26502 | -95.78617 | 7330 ft | 215 kts | 81° |
| 2026-04-21 20:48 | 41.26676 | -95.76613 | 8259 ft | 223 kts | 79° |
| 2026-04-21 20:49 | 41.26864 | -95.74540 | 9236 ft | 229 kts | 79° |
| 2026-04-21 20:49 | 41.27064 | -95.72347 | 9869 ft | 251 kts | 79° |
| 2026-04-21 20:49 | 41.27285 | -95.69918 | 10274 ft | 278 kts | 79° |
| 2026-04-21 20:49 | 41.27525 | -95.67234 | 10645 ft | 306 kts | 79° |
| 2026-04-21 20:50 | 41.27784 | -95.64308 | 10963 ft | 332 kts | 80° |
| 2026-04-21 20:50 | 41.28066 | -95.61132 | 11167 ft | 359 kts | 80° |
| 2026-04-21 20:50 | 41.28367 | -95.57732 | 11465 ft | 379 kts | 80° |
| 2026-04-21 20:50 | 41.28669 | -95.54248 | 12327 ft | 380 kts | 80° |
| 2026-04-21 20:51 | 41.28977 | -95.50730 | 13051 ft | 386 kts | 79° |
| 2026-04-21 20:51 | 41.29293 | -95.47164 | 13782 ft | 391 kts | 79° |
| 2026-04-21 20:51 | 41.29609 | -95.43554 | 14460 ft | 395 kts | 79° |
| 2026-04-21 20:51 | 41.29924 | -95.39915 | 15131 ft | 398 kts | 79° |
| 2026-04-21 20:52 | 41.30242 | -95.36238 | 15826 ft | 401 kts | 80° |
| 2026-04-21 20:52 | 41.30562 | -95.32532 | 16564 ft | 405 kts | 79° |
| 2026-04-21 20:52 | 41.30884 | -95.28803 | 17295 ft | 408 kts | 79° |
| 2026-04-21 20:52 | 41.31206 | -95.25034 | 18034 ft | 412 kts | 80° |
| 2026-04-21 20:53 | 41.31530 | -95.21228 | 18716 ft | 416 kts | 80° |
| 2026-04-21 20:53 | 41.31857 | -95.17386 | 19369 ft | 420 kts | 80° |
| 2026-04-21 20:53 | 41.32187 | -95.13501 | 20032 ft | 425 kts | 80° |
| 2026-04-21 20:53 | 41.32518 | -95.09567 | 20707 ft | 430 kts | 80° |
| 2026-04-21 20:54 | 41.32851 | -95.05595 | 21381 ft | 435 kts | 80° |
| 2026-04-21 20:54 | 41.33187 | -95.01575 | 22047 ft | 439 kts | 80° |
| 2026-04-21 20:54 | 41.33525 | -94.97517 | 22706 ft | 444 kts | 81° |
| 2026-04-21 20:54 | 41.33866 | -94.93410 | 23347 ft | 450 kts | 81° |
| 2026-04-21 20:55 | 41.34209 | -94.89250 | 23894 ft | 454 kts | 80° |
| 2026-04-21 20:55 | 41.34551 | -94.85063 | 24521 ft | 456 kts | 80° |
| 2026-04-21 20:55 | 41.34895 | -94.80861 | 25118 ft | 458 kts | 80° |
| 2026-04-21 20:55 | 41.35240 | -94.76630 | 25710 ft | 461 kts | 80° |
| 2026-04-21 20:56 | 41.35580 | -94.72439 | 26307 ft | 463 kts | 79° |
| 2026-04-21 20:56 | 41.35928 | -94.68109 | 26905 ft | 465 kts | 79° |
| 2026-04-21 20:56 | 41.36272 | -94.63824 | 27498 ft | 468 kts | 79° |
| 2026-04-21 20:56 | 41.36617 | -94.59509 | 28073 ft | 470 kts | 79° |
| 2026-04-21 20:57 | 41.36959 | -94.55222 | 28636 ft | 474 kts | 79° |
| 2026-04-21 20:57 | 41.37310 | -94.50787 | 29179 ft | 477 kts | 79° |
| 2026-04-21 20:57 | 41.37651 | -94.46445 | 29741 ft | 480 kts | 79° |
| 2026-04-21 20:57 | 41.37998 | -94.42014 | 30232 ft | 483 kts | 79° |
| 2026-04-21 20:58 | 41.38345 | -94.37559 | 30729 ft | 484 kts | 79° |
| 2026-04-21 20:58 | 41.38690 | -94.33104 | 31367 ft | 481 kts | 78° |
| 2026-04-21 20:58 | 41.39026 | -94.28700 | 32175 ft | 476 kts | 78° |
| 2026-04-21 20:58 | 41.39362 | -94.24334 | 32962 ft | 471 kts | 78° |
| 2026-04-21 20:59 | 41.39693 | -94.20019 | 33753 ft | 466 kts | 77° |
| 2026-04-21 20:59 | 41.40019 | -94.15737 | 34415 ft | 464 kts | 77° |
| 2026-04-21 20:59 | 41.40344 | -94.11463 | 34936 ft | 464 kts | 77° |
| 2026-04-21 20:59 | 41.40665 | -94.07197 | 35486 ft | 463 kts | 77° |
| 2026-04-21 21:00 | 41.40984 | -94.02932 | 36050 ft | 463 kts | 77° |
| 2026-04-21 21:00 | 41.41300 | -93.98670 | 36622 ft | 462 kts | 77° |
| 2026-04-21 21:00 | 41.41616 | -93.94415 | 37191 ft | 461 kts | 77° |
| 2026-04-21 21:00 | 41.41930 | -93.90168 | 37743 ft | 461 kts | 77° |
| 2026-04-21 21:01 | 41.42242 | -93.85920 | 38309 ft | 460 kts | 77° |
| 2026-04-21 21:01 | 41.42550 | -93.81683 | 38818 ft | 459 kts | 77° |
| 2026-04-21 21:01 | 41.42863 | -93.77418 | 38921 ft | 468 kts | 77° |
| 2026-04-21 21:01 | 41.43181 | -93.73101 | 38919 ft | 480 kts | 77° |
| 2026-04-21 21:02 | 41.44223 | -93.64215 | 38932 ft | 489 kts | 66° |
| 2026-04-21 21:02 | 41.46884 | -93.55842 | 38934 ft | 497 kts | 58° |
| 2026-04-21 21:03 | 41.49787 | -93.47379 | 38945 ft | 503 kts | 59° |
| 2026-04-21 21:03 | 41.52691 | -93.38909 | 38937 ft | 502 kts | 58° |
| 2026-04-21 21:04 | 41.55607 | -93.30407 | 38932 ft | 505 kts | 59° |
| 2026-04-21 21:04 | 41.58513 | -93.21857 | 38928 ft | 505 kts | 59° |
| 2026-04-21 21:05 | 41.61424 | -93.13317 | 38933 ft | 505 kts | 59° |
| 2026-04-21 21:05 | 41.64316 | -93.04765 | 38954 ft | 505 kts | 59° |
| 2026-04-21 21:06 | 41.67214 | -92.96201 | 38935 ft | 505 kts | 59° |
| 2026-04-21 21:06 | 41.70100 | -92.87622 | 38936 ft | 506 kts | 59° |
| 2026-04-21 21:07 | 41.72982 | -92.79043 | 38956 ft | 506 kts | 59° |
| 2026-04-21 21:07 | 41.75861 | -92.70442 | 38957 ft | 506 kts | 59° |
| 2026-04-21 21:08 | 41.78737 | -92.61823 | 38950 ft | 507 kts | 59° |
| 2026-04-21 21:08 | 41.81609 | -92.53186 | 38944 ft | 507 kts | 59° |
| 2026-04-21 21:09 | 41.84454 | -92.44605 | 38932 ft | 507 kts | 59° |
| 2026-04-21 21:09 | 41.87333 | -92.35896 | 38918 ft | 507 kts | 59° |
| 2026-04-21 21:10 | 41.90164 | -92.27302 | 38916 ft | 507 kts | 59° |
| 2026-04-21 21:10 | 41.93010 | -92.18637 | 38915 ft | 507 kts | 59° |
| 2026-04-21 21:11 | 41.95847 | -92.09973 | 38916 ft | 507 kts | 59° |
| 2026-04-21 21:11 | 41.98680 | -92.01292 | 38916 ft | 508 kts | 59° |
| 2026-04-21 21:12 | 42.01513 | -91.92583 | 38915 ft | 508 kts | 59° |
| 2026-04-21 21:12 | 42.04340 | -91.83864 | 38922 ft | 507 kts | 59° |
| 2026-04-21 21:13 | 42.07152 | -91.75164 | 38923 ft | 507 kts | 59° |
| 2026-04-21 21:13 | 42.09960 | -91.66450 | 38925 ft | 508 kts | 59° |
| 2026-04-21 21:14 | 42.12761 | -91.57726 | 38923 ft | 508 kts | 59° |
| 2026-04-21 21:14 | 42.15558 | -91.48991 | 38922 ft | 508 kts | 59° |
| 2026-04-21 21:15 | 42.18342 | -91.40261 | 38926 ft | 507 kts | 59° |
| 2026-04-21 21:15 | 42.21127 | -91.31510 | 38922 ft | 508 kts | 59° |
| 2026-04-21 21:16 | 42.23905 | -91.22737 | 38923 ft | 508 kts | 59° |
| 2026-04-21 21:16 | 42.26682 | -91.13956 | 38946 ft | 509 kts | 59° |
| 2026-04-21 21:17 | 42.29452 | -91.05153 | 38919 ft | 509 kts | 59° |
| 2026-04-21 21:17 | 42.32217 | -90.96346 | 38921 ft | 509 kts | 59° |
| 2026-04-21 21:18 | 42.34976 | -90.87523 | 38936 ft | 509 kts | 59° |
| 2026-04-21 21:18 | 42.37729 | -90.78695 | 38936 ft | 510 kts | 60° |
| 2026-04-21 21:19 | 42.40445 | -90.69811 | 38943 ft | 515 kts | 63° |
| 2026-04-21 21:19 | 42.42775 | -90.60695 | 38941 ft | 517 kts | 64° |
| 2026-04-21 21:20 | 42.45145 | -90.51513 | 38936 ft | 516 kts | 63° |
| 2026-04-21 21:20 | 42.47115 | -90.43818 | 38929 ft | 516 kts | 64° |
| 2026-04-21 21:21 | 42.49439 | -90.34685 | 38928 ft | 518 kts | 64° |
| 2026-04-21 21:21 | 42.51792 | -90.25448 | 38925 ft | 519 kts | 64° |
| 2026-04-21 21:22 | 42.54126 | -90.16203 | 38922 ft | 518 kts | 64° |
| 2026-04-21 21:22 | 42.56462 | -90.06954 | 38912 ft | 518 kts | 64° |
| 2026-04-21 21:23 | 42.58786 | -89.97690 | 38924 ft | 520 kts | 65° |
| 2026-04-21 21:23 | 42.61123 | -89.88353 | 38919 ft | 523 kts | 65° |
| 2026-04-21 21:24 | 42.63450 | -89.79002 | 38925 ft | 523 kts | 65° |
| 2026-04-21 21:24 | 42.65774 | -89.69645 | 38932 ft | 523 kts | 65° |
| 2026-04-21 21:25 | 42.68087 | -89.60281 | 38932 ft | 523 kts | 65° |
| 2026-04-21 21:25 | 42.70392 | -89.50916 | 38931 ft | 523 kts | 65° |
| 2026-04-21 21:26 | 42.72692 | -89.41535 | 38924 ft | 523 kts | 65° |
| 2026-04-21 21:26 | 42.74982 | -89.32152 | 38919 ft | 523 kts | 65° |
| 2026-04-21 21:27 | 42.77267 | -89.22754 | 38942 ft | 523 kts | 66° |
| 2026-04-21 21:27 | 42.79558 | -89.13299 | 38917 ft | 527 kts | 66° |
| 2026-04-21 21:28 | 42.81840 | -89.03823 | 38922 ft | 526 kts | 66° |
| 2026-04-21 21:29 | 42.85252 | -88.89606 | 38921 ft | 526 kts | 66° |
| 2026-04-21 21:29 | 42.87519 | -88.80109 | 38916 ft | 529 kts | 67° |
| 2026-04-21 21:30 | 42.89773 | -88.70618 | 38916 ft | 530 kts | 67° |
| 2026-04-21 21:30 | 42.92035 | -88.61057 | 38919 ft | 529 kts | 67° |
| 2026-04-21 21:31 | 42.94289 | -88.51496 | 38925 ft | 529 kts | 67° |
| 2026-04-21 21:31 | 42.96537 | -88.41913 | 38924 ft | 532 kts | 68° |
| 2026-04-21 21:32 | 42.98789 | -88.32269 | 38932 ft | 533 kts | 68° |
| 2026-04-21 21:32 | 43.01033 | -88.22624 | 38939 ft | 533 kts | 68° |
| 2026-04-21 21:33 | 43.03268 | -88.12974 | 38929 ft | 533 kts | 68° |
| 2026-04-21 21:33 | 43.05498 | -88.03304 | 38921 ft | 536 kts | 68° |
| 2026-04-21 21:34 | 43.07732 | -87.93565 | 38922 ft | 536 kts | 68° |
| 2026-04-21 21:34 | 43.09956 | -87.83837 | 38922 ft | 536 kts | 68° |
| 2026-04-21 21:35 | 43.12171 | -87.74106 | 38916 ft | 536 kts | 69° |
| 2026-04-21 21:35 | 43.14382 | -87.64345 | 38918 ft | 538 kts | 69° |
| 2026-04-21 21:36 | 43.16592 | -87.54543 | 38926 ft | 538 kts | 69° |
| 2026-04-21 21:36 | 43.18793 | -87.44740 | 38928 ft | 538 kts | 69° |
| 2026-04-21 21:37 | 43.20985 | -87.34927 | 38927 ft | 538 kts | 69° |
| 2026-04-21 21:37 | 43.23172 | -87.25104 | 38927 ft | 540 kts | 69° |
| 2026-04-21 21:38 | 43.25344 | -87.15237 | 38928 ft | 541 kts | 70° |
| 2026-04-21 21:38 | 43.26400 | -87.05044 | 38918 ft | 547 kts | 84° |
| 2026-04-21 21:39 | 43.26608 | -86.94598 | 38944 ft | 547 kts | 84° |
| 2026-04-21 21:39 | 43.27149 | -86.84174 | 38943 ft | 549 kts | 84° |
| 2026-04-21 21:40 | 43.27446 | -86.73714 | 38943 ft | 549 kts | 85° |
| 2026-04-21 21:40 | 43.27888 | -86.63255 | 38944 ft | 548 kts | 84° |
| 2026-04-21 21:41 | 43.28226 | -86.52795 | 38947 ft | 549 kts | 85° |
| 2026-04-21 21:41 | 43.28607 | -86.42316 | 38952 ft | 550 kts | 84° |
| 2026-04-21 21:42 | 43.28954 | -86.31833 | 38949 ft | 550 kts | 85° |
| 2026-04-21 21:42 | 43.29299 | -86.21352 | 38960 ft | 550 kts | 85° |
| 2026-04-21 21:43 | 43.29637 | -86.10868 | 38952 ft | 550 kts | 85° |
| 2026-04-21 21:43 | 43.29849 | -86.00373 | 38939 ft | 550 kts | 87° |
| 2026-04-21 21:44 | 43.29926 | -85.89927 | 38188 ft | 539 kts | 87° |
| 2026-04-21 21:44 | 43.29960 | -85.84856 | 37497 ft | 523 kts | 87° |
| 2026-04-21 21:44 | 43.29987 | -85.79951 | 36827 ft | 504 kts | 87° |
| 2026-04-21 21:44 | 43.30012 | -85.75218 | 36184 ft | 489 kts | 87° |
| 2026-04-21 21:45 | 43.30039 | -85.70587 | 35490 ft | 482 kts | 86° |
| 2026-04-21 21:45 | 43.30064 | -85.66026 | 34937 ft | 476 kts | 86° |
| 2026-04-21 21:45 | 43.30085 | -85.61470 | 34308 ft | 480 kts | 86° |
| 2026-04-21 21:45 | 43.30104 | -85.56861 | 33636 ft | 486 kts | 86° |
| 2026-04-21 21:46 | 43.30121 | -85.52196 | 33016 ft | 490 kts | 87° |
| 2026-04-21 21:46 | 43.30136 | -85.47495 | 32367 ft | 495 kts | 87° |
| 2026-04-21 21:46 | 43.30149 | -85.42757 | 31711 ft | 498 kts | 87° |
| 2026-04-21 21:46 | 43.30161 | -85.37982 | 31051 ft | 501 kts | 87° |
| 2026-04-21 21:47 | 43.30171 | -85.33191 | 30387 ft | 503 kts | 88° |
| 2026-04-21 21:47 | 43.30178 | -85.28404 | 29681 ft | 499 kts | 88° |
| 2026-04-21 21:47 | 43.30029 | -85.23681 | 28981 ft | 494 kts | 97° |
| 2026-04-21 21:47 | 43.29053 | -85.19185 | 28355 ft | 491 kts | 113° |
| 2026-04-21 21:48 | 43.27375 | -85.15139 | 27741 ft | 486 kts | 123° |
| 2026-04-21 21:48 | 43.25567 | -85.11289 | 27055 ft | 485 kts | 124° |
| 2026-04-21 21:48 | 43.23736 | -85.07445 | 26472 ft | 479 kts | 124° |
| 2026-04-21 21:48 | 43.21945 | -85.03608 | 25844 ft | 476 kts | 123° |
| 2026-04-21 21:49 | 43.20151 | -84.99729 | 25203 ft | 473 kts | 123° |
| 2026-04-21 21:49 | 43.18408 | -84.96006 | 24583 ft | 469 kts | 124° |
| 2026-04-21 21:49 | 43.16647 | -84.92282 | 23970 ft | 458 kts | 124° |
| 2026-04-21 21:49 | 43.14951 | -84.88679 | 23346 ft | 442 kts | 124° |
| 2026-04-21 21:50 | 43.13287 | -84.85227 | 22767 ft | 427 kts | 127° |
| 2026-04-21 21:50 | 43.11600 | -84.81956 | 22412 ft | 415 kts | 126° |
| 2026-04-21 21:50 | 43.10004 | -84.78654 | 22031 ft | 420 kts | 124° |
| 2026-04-21 21:50 | 43.08369 | -84.75318 | 21646 ft | 423 kts | 126° |
| 2026-04-21 21:51 | 43.06682 | -84.72022 | 21255 ft | 422 kts | 127° |
| 2026-04-21 21:51 | 43.05002 | -84.68737 | 20863 ft | 421 kts | 126° |
| 2026-04-21 21:51 | 43.03353 | -84.65439 | 20475 ft | 420 kts | 126° |
| 2026-04-21 21:51 | 43.01710 | -84.62148 | 20084 ft | 418 kts | 126° |
| 2026-04-21 21:52 | 43.00063 | -84.58896 | 19699 ft | 416 kts | 127° |
| 2026-04-21 21:52 | 42.98417 | -84.55663 | 19304 ft | 413 kts | 127° |
| 2026-04-21 21:52 | 42.96786 | -84.52438 | 18955 ft | 411 kts | 126° |
| 2026-04-21 21:52 | 42.95171 | -84.49241 | 18586 ft | 409 kts | 126° |
| 2026-04-21 21:53 | 42.93557 | -84.46043 | 18202 ft | 407 kts | 126° |
| 2026-04-21 21:53 | 42.91983 | -84.42842 | 17797 ft | 405 kts | 125° |
| 2026-04-21 21:53 | 42.90428 | -84.39649 | 17416 ft | 403 kts | 126° |
| 2026-04-21 21:53 | 42.88862 | -84.36487 | 17035 ft | 401 kts | 126° |
| 2026-04-21 21:54 | 42.87297 | -84.33354 | 16648 ft | 399 kts | 126° |
| 2026-04-21 21:54 | 42.85743 | -84.30224 | 16299 ft | 398 kts | 126° |
| 2026-04-21 21:54 | 42.84204 | -84.27108 | 15931 ft | 395 kts | 126° |
| 2026-04-21 21:54 | 42.82669 | -84.24016 | 15564 ft | 393 kts | 127° |
| 2026-04-21 21:55 | 42.81135 | -84.20939 | 15195 ft | 391 kts | 127° |
| 2026-04-21 21:55 | 42.79610 | -84.17880 | 14834 ft | 390 kts | 127° |
| 2026-04-21 21:55 | 42.78094 | -84.14836 | 14474 ft | 388 kts | 127° |
| 2026-04-21 21:55 | 42.76582 | -84.11806 | 14112 ft | 386 kts | 127° |
| 2026-04-21 21:56 | 42.75074 | -84.08786 | 13759 ft | 385 kts | 127° |
| 2026-04-21 21:56 | 42.73575 | -84.05778 | 13375 ft | 382 kts | 127° |
| 2026-04-21 21:56 | 42.72087 | -84.02794 | 13012 ft | 381 kts | 128° |
| 2026-04-21 21:56 | 42.70611 | -83.99837 | 12663 ft | 371 kts | 128° |
| 2026-04-21 21:57 | 42.69212 | -83.96994 | 12318 ft | 357 kts | 126° |
| 2026-04-21 21:57 | 42.68286 | -83.93876 | 11939 ft | 354 kts | 106° |
| 2026-04-21 21:57 | 42.67701 | -83.90650 | 11663 ft | 351 kts | 105° |
| 2026-04-21 21:57 | 42.67101 | -83.87427 | 11357 ft | 353 kts | 105° |
| 2026-04-21 21:58 | 42.66478 | -83.84188 | 11031 ft | 355 kts | 105° |
| 2026-04-21 21:58 | 42.65859 | -83.80931 | 10700 ft | 355 kts | 105° |
| 2026-04-21 21:58 | 42.65250 | -83.77681 | 10366 ft | 354 kts | 105° |
| 2026-04-21 21:58 | 42.64649 | -83.74491 | 10039 ft | 350 kts | 105° |
| 2026-04-21 21:59 | 42.64048 | -83.71331 | 9700 ft | 341 kts | 105° |
| 2026-04-21 21:59 | 42.63462 | -83.68255 | 9370 ft | 336 kts | 105° |
| 2026-04-21 21:59 | 42.62888 | -83.65232 | 9057 ft | 321 kts | 106° |
| 2026-04-21 21:59 | 42.62279 | -83.62383 | 8749 ft | 307 kts | 110° |
| 2026-04-21 22:00 | 42.61680 | -83.59630 | 8477 ft | 302 kts | 107° |
| 2026-04-21 22:00 | 42.61151 | -83.56882 | 8203 ft | 300 kts | 107° |
| 2026-04-21 22:00 | 42.60576 | -83.54161 | 7930 ft | 298 kts | 110° |
| 2026-04-21 22:00 | 42.59750 | -83.51609 | 7412 ft | 294 kts | 121° |
| 2026-04-21 22:01 | 42.58799 | -83.49199 | 7089 ft | 284 kts | 123° |
| 2026-04-21 22:01 | 42.57876 | -83.46875 | 6800 ft | 278 kts | 122° |
| 2026-04-21 22:01 | 42.56748 | -83.44767 | 6474 ft | 276 kts | 139° |
| 2026-04-21 22:01 | 42.55383 | -83.42950 | 6190 ft | 275 kts | 142° |
| 2026-04-21 22:02 | 42.53997 | -83.41169 | 5900 ft | 274 kts | 143° |
| 2026-04-21 22:02 | 42.52621 | -83.39402 | 5603 ft | 268 kts | 143° |
| 2026-04-21 22:02 | 42.51306 | -83.37696 | 5302 ft | 256 kts | 142° |
| 2026-04-21 22:02 | 42.50049 | -83.36049 | 4994 ft | 247 kts | 142° |
| 2026-04-21 22:03 | 42.48842 | -83.34458 | 4685 ft | 239 kts | 143° |
| 2026-04-21 22:03 | 42.47682 | -83.32904 | 4369 ft | 228 kts | 142° |
| 2026-04-21 22:03 | 42.46592 | -83.31418 | 4044 ft | 219 kts | 142° |
| 2026-04-21 22:03 | 42.45552 | -83.29995 | 3977 ft | 206 kts | 142° |
| 2026-04-21 22:04 | 42.44554 | -83.28626 | 3977 ft | 204 kts | 143° |
| 2026-04-21 22:04 | 42.43523 | -83.27214 | 3987 ft | 217 kts | 143° |
| 2026-04-21 22:04 | 42.42451 | -83.25746 | 3993 ft | 221 kts | 143° |
| 2026-04-21 22:04 | 42.41370 | -83.24261 | 3989 ft | 222 kts | 142° |
| 2026-04-21 22:05 | 42.40293 | -83.22775 | 3994 ft | 220 kts | 142° |
| 2026-04-21 22:05 | 42.39220 | -83.21293 | 3999 ft | 221 kts | 142° |
| 2026-04-21 22:05 | 42.38144 | -83.19808 | 3996 ft | 220 kts | 142° |
| 2026-04-21 22:05 | 42.37086 | -83.18362 | 3994 ft | 218 kts | 142° |
| 2026-04-21 22:06 | 42.35826 | -83.17423 | 3905 ft | 199 kts | 180° |
| 2026-04-21 22:06 | 42.34668 | -83.17927 | 3877 ft | 165 kts | 227° |
| 2026-04-21 22:06 | 42.34265 | -83.19224 | 3950 ft | 139 kts | 253° |
| 2026-04-21 22:06 | 42.34078 | -83.20346 | 3949 ft | 107 kts | 252° |
| 2026-04-21 22:07 | 42.33929 | -83.21222 | 3964 ft | 89 kts | 249° |
| 2026-04-21 22:07 | 42.33698 | -83.22047 | 3703 ft | 99 kts | 244° |
| 2026-04-21 22:07 | 42.33521 | -83.22635 | 3557 ft | 100 kts | 244° |
| 2026-04-21 22:07 | 42.33214 | -83.23454 | 3387 ft | 97 kts | 237° |
| 2026-04-21 22:08 | 42.32792 | -83.24176 | 3221 ft | 98 kts | 230° |
| 2026-04-21 22:08 | 42.32332 | -83.24834 | 3104 ft | 96 kts | 228° |
| 2026-04-21 22:08 | 42.31854 | -83.25482 | 2935 ft | 98 kts | 227° |
| 2026-04-21 22:08 | 42.31366 | -83.26141 | 2732 ft | 100 kts | 225° |
| 2026-04-21 22:09 | 42.30894 | -83.26814 | 2512 ft | 99 kts | 227° |
| 2026-04-21 22:09 | 42.30391 | -83.27480 | 2307 ft | 100 kts | 224° |
| 2026-04-21 22:09 | 42.29868 | -83.28080 | 2130 ft | 96 kts | 220° |
| 2026-04-21 22:09 | 42.29368 | -83.28624 | 2056 ft | 93 kts | 218° |
| 2026-04-21 22:10 | 42.28824 | -83.29113 | 1974 ft | 94 kts | 215° |
| 2026-04-21 22:10 | 42.28249 | -83.29562 | 1916 ft | 98 kts | 213° |
| 2026-04-21 22:10 | 42.27646 | -83.30006 | 1806 ft | 98 kts | 211° |
| 2026-04-21 22:10 | 42.27036 | -83.30423 | 1650 ft | 99 kts | 210° |
| 2026-04-21 22:11 | 42.26434 | -83.30887 | 1524 ft | 101 kts | 214° |
| 2026-04-21 22:11 | 42.25796 | -83.31374 | 1324 ft | 109 kts | 213° |
| 2026-04-21 22:11 | 42.25143 | -83.31879 | 1251 ft | 108 kts | 213° |
| 2026-04-21 22:11 | 42.24487 | -83.32374 | 1082 ft | 107 kts | 211° |
| 2026-04-21 22:12 | 42.23833 | -83.32853 | 946 ft | 109 kts | 211° |
| 2026-04-21 22:12 | 42.23159 | -83.33357 | 774 ft | 111 kts | 212° |
| 2026-04-21 22:12 | 42.22498 | -83.33853 | 651 ft | 103 kts | 212° |
| 2026-04-21 22:12 | 42.21965 | -83.34254 | 643 ft | 64 kts | 207° |
| 2026-04-21 22:13 | 42.21815 | -83.34405 | 644 ft | 8 kts | 296° |
| 2026-04-21 22:13 | 42.21834 | -83.34434 | 644 ft | 2 kts | 285° |
| 2026-04-21 22:13 | 42.21834 | -83.34469 | 644 ft | 6 kts | 268° |
| 2026-04-21 22:13 | 42.21834 | -83.34496 | 644 ft | 0 kts | 269° |
| 2026-04-21 22:14 | 42.21836 | -83.34504 | 644 ft | 1 kts | 300° |
| 2026-04-21 22:14 | 42.21854 | -83.34502 | 643 ft | 7 kts | 25° |
| 2026-04-21 22:14 | 42.21950 | -83.34432 | 643 ft | 21 kts | 29° |
| 2026-04-21 22:15 | 42.22077 | -83.34338 | 643 ft | 21 kts | 28° |
| 2026-04-21 22:15 | 42.22203 | -83.34245 | 642 ft | 21 kts | 28° |
| 2026-04-21 22:15 | 42.22326 | -83.34154 | 643 ft | 20 kts | 30° |
| 2026-04-21 22:15 | 42.22445 | -83.34066 | 643 ft | 19 kts | 28° |
| 2026-04-21 22:16 | 42.22560 | -83.33982 | 643 ft | 19 kts | 28° |
| 2026-04-21 22:16 | 42.22676 | -83.33898 | 643 ft | 19 kts | 28° |
| 2026-04-21 22:16 | 42.22764 | -83.33917 | 643 ft | 12 kts | 278° |
| 2026-04-21 22:16 | 42.22794 | -83.34009 | 643 ft | 10 kts | 298° |
| 2026-04-21 22:17 | 42.22829 | -83.34045 | 643 ft | 3 kts | 9° |
| 2026-04-21 22:17 | 42.22849 | -83.34027 | 643 ft | 6 kts | 33° |
| 2026-04-21 22:17 | 42.22876 | -83.34012 | 643 ft | 2 kts | 331° |
| 2026-04-21 22:17 | 42.22869 | -83.34030 | 643 ft | 4 kts | 211° |
| 2026-04-21 22:18 | 42.22882 | -83.34019 | 643 ft | 7 kts | 212° |
| 2026-04-21 22:18 | 42.22884 | -83.34017 | 643 ft | 0 kts | 212° |